Time;durP1;ratioP1;P1;durP2;ratioP2;P2;SDS_P1;SDS_P2;PMS_P1;PMS_P2;Temp;Humidity;BMP_temperature;BMP_pressure;BME280_temperature;BME280_humidity;BME280_pressure;Samples;Min_cycle;Max_cycle;Signal;HPM_P1;HPM_P2
2022/11/16 00:01:05;;;;;;;8.43;4.20;;;10.30;60.80;;;;;;5016189;28;19914;-84
2022/11/16 00:03:32;;;;;;;5.35;4.03;;;10.30;60.60;;;;;;5015377;28;20504;-84
2022/11/16 00:06:00;;;;;;;7.53;4.20;;;10.20;60.60;;;;;;5016342;28;20036;-84
2022/11/16 00:08:29;;;;;;;6.80;4.35;;;10.20;60.50;;;;;;5013468;28;20072;-83
2022/11/16 00:11:02;;;;;;;8.27;3.90;;;10.20;60.40;;;;;;5013179;28;20572;-82
2022/11/16 00:13:30;;;;;;;7.45;4.53;;;10.20;61.10;;;;;;5012058;28;20152;-82
2022/11/16 00:15:56;;;;;;;8.38;4.55;;;10.20;60.40;;;;;;5011464;28;20080;-83
2022/11/16 00:18:22;;;;;;;5.60;3.83;;;10.10;60.10;;;;;;4996532;28;20140;-82
2022/11/16 00:20:49;;;;;;;6.53;4.18;;;10.10;60.30;;;;;;5015880;28;20049;-83
2022/11/16 00:23:15;;;;;;;6.70;4.15;;;10.10;60.20;;;;;;5012810;28;20034;-82
2022/11/16 00:25:41;;;;;;;7.95;4.47;;;10.10;60.20;;;;;;5015304;28;20049;-82
2022/11/16 00:28:07;;;;;;;6.70;4.13;;;10.00;60.10;;;;;;5015945;28;20124;-82
2022/11/16 00:30:33;;;;;;;7.55;4.13;;;10.00;60.10;;;;;;5015636;28;20440;-83
2022/11/16 00:33:00;;;;;;;6.10;4.15;;;10.00;60.10;;;;;;5014139;28;20029;-83
2022/11/16 00:35:26;;;;;;;6.70;4.30;;;10.00;60.00;;;;;;5013726;28;20415;-82
2022/11/16 00:37:52;;;;;;;7.95;4.35;;;10.00;59.90;;;;;;4997419;28;20026;-81
2022/11/16 00:40:18;;;;;;;7.50;4.07;;;9.90;59.90;;;;;;5014072;28;20520;-82
2022/11/16 00:42:44;;;;;;;6.78;3.88;;;9.90;59.90;;;;;;5014242;28;20085;-82
2022/11/16 00:45:10;;;;;;;6.68;3.90;;;9.90;59.90;;;;;;5013181;28;20497;-82
2022/11/16 00:47:36;;;;;;;8.70;3.92;;;9.90;59.90;;;;;;5004351;28;20042;-82
2022/11/16 00:50:03;;;;;;;6.00;3.83;;;9.90;60.00;;;;;;4972159;28;20099;-83
2022/11/16 00:52:29;;;;;;;5.65;3.35;;;9.90;60.10;;;;;;5009823;28;20639;-81
2022/11/16 00:54:55;;;;;;;9.48;4.05;;;9.90;60.20;;;;;;4973628;28;20403;-83
2022/11/16 00:57:23;;;;;;;8.82;4.45;;;9.80;60.20;;;;;;5013842;28;20038;-82
2022/11/16 00:59:49;;;;;;;6.05;3.63;;;9.80;60.10;;;;;;5013618;28;20520;-81
2022/11/16 01:02:15;;;;;;;5.60;3.78;;;9.80;60.00;;;;;;5014370;28;20037;-81
2022/11/16 01:04:41;;;;;;;7.55;3.70;;;9.80;60.10;;;;;;4997110;28;20033;-82
2022/11/16 01:07:07;;;;;;;7.40;3.63;;;9.80;60.20;;;;;;4997927;28;20072;-82
2022/11/16 01:09:33;;;;;;;6.45;3.60;;;9.80;60.20;;;;;;5009887;28;20478;-83
2022/11/16 01:12:07;;;;;;;8.05;3.70;;;9.80;60.00;;;;;;5013785;28;20084;-82
2022/11/16 01:14:42;;;;;;;8.10;4.00;;;9.80;60.20;;;;;;5014618;28;20044;-81
2022/11/16 01:17:08;;;;;;;9.43;4.15;;;9.70;60.00;;;;;;4997428;28;20281;-82
2022/11/16 01:19:34;;;;;;;6.38;3.65;;;9.70;59.80;;;;;;5012696;28;20060;-82
2022/11/16 01:22:00;;;;;;;7.13;3.97;;;9.70;59.80;;;;;;5014286;28;20468;-82
2022/11/16 01:24:27;;;;;;;7.05;3.65;;;9.70;59.90;;;;;;5014487;28;20057;-81
2022/11/16 01:26:55;;;;;;;7.00;3.67;;;9.70;59.90;;;;;;5013065;28;20168;-81
2022/11/16 01:29:24;;;;;;;6.75;3.70;;;9.70;59.90;;;;;;5013579;28;20073;-81
2022/11/16 01:31:56;;;;;;;6.82;3.97;;;9.70;59.70;;;;;;5015280;28;20053;-81
2022/11/16 01:34:23;;;;;;;9.02;4.35;;;9.60;59.50;;;;;;5000563;28;20517;-81
2022/11/16 01:36:50;;;;;;;6.43;4.03;;;9.70;59.40;;;;;;5017235;28;20080;-82
2022/11/16 01:39:17;;;;;;;6.65;3.65;;;9.70;59.20;;;;;;5016435;28;20591;-82
2022/11/16 01:41:53;;;;;;;7.25;4.22;;;9.60;59.10;;;;;;5000386;28;20400;-82
2022/11/16 01:44:31;;;;;;;8.15;3.75;;;9.60;59.60;;;;;;5016032;28;20041;-83
2022/11/16 01:47:09;;;;;;;5.22;3.70;;;9.60;59.90;;;;;;5001493;28;20034;-82
2022/11/16 01:49:38;;;;;;;7.20;3.70;;;9.60;59.60;;;;;;5016528;28;20041;-82
2022/11/16 01:52:07;;;;;;;6.07;3.45;;;9.60;59.70;;;;;;5015118;28;20036;-82
2022/11/16 01:54:39;;;;;;;6.45;3.22;;;9.60;59.60;;;;;;5038917;28;20132;-82
2022/11/16 01:57:08;;;;;;;5.40;3.35;;;9.60;59.50;;;;;;5017792;28;20042;-82
2022/11/16 01:59:39;;;;;;;6.57;3.42;;;9.60;59.40;;;;;;5015907;28;20029;-82
2022/11/16 02:02:09;;;;;;;6.47;3.35;;;9.50;59.10;;;;;;5000763;28;20123;-82
2022/11/16 02:04:35;;;;;;;7.90;3.45;;;9.50;59.10;;;;;;5003610;28;20449;-82
2022/11/16 02:07:14;;;;;;;6.93;3.67;;;9.50;59.00;;;;;;5017397;28;20060;-83
2022/11/16 02:10:14;;;;;;;5.60;3.20;;;9.50;59.10;;;;;;5015931;28;20046;-84
2022/11/16 02:12:49;;;;;;;5.55;3.60;;;9.50;59.10;;;;;;5017954;28;20157;-84
2022/11/16 02:15:34;;;;;;;6.20;3.30;;;9.50;59.10;;;;;;5020245;28;20042;-84
2022/11/16 02:18:25;;;;;;;8.10;3.53;;;9.50;59.10;;;;;;5010024;28;20076;-82
2022/11/16 02:21:06;;;;;;;5.65;3.22;;;9.50;59.10;;;;;;4998525;28;20625;-81
2022/11/16 02:23:44;;;;;;;7.57;3.50;;;9.50;59.00;;;;;;5016144;28;20121;-82
2022/11/16 02:26:34;;;;;;;7.60;3.17;;;9.50;59.10;;;;;;5015097;28;20120;-81
2022/11/16 02:29:09;;;;;;;6.00;3.13;;;9.50;59.10;;;;;;5016049;28;20034;-83
2022/11/16 02:31:39;;;;;;;5.28;3.78;;;9.40;58.80;;;;;;5017097;28;20033;-83
2022/11/16 02:34:10;;;;;;;5.55;3.10;;;9.40;58.70;;;;;;5017629;28;20033;-82
2022/11/16 02:36:40;;;;;;;5.55;3.30;;;9.40;58.60;;;;;;4988348;28;20404;-81
2022/11/16 02:39:20;;;;;;;5.88;3.35;;;9.40;58.50;;;;;;5015620;28;20071;-81
2022/11/16 02:41:49;;;;;;;6.65;3.70;;;9.40;58.50;;;;;;5015870;28;20025;-82
2022/11/16 02:44:35;;;;;;;7.40;3.45;;;9.40;58.50;;;;;;5003511;28;20088;-82
2022/11/16 02:47:08;;;;;;;4.75;2.88;;;9.40;58.60;;;;;;5021299;28;20061;-82
2022/11/16 02:49:39;;;;;;;6.35;3.20;;;9.40;58.40;;;;;;4998060;28;20072;-81
2022/11/16 02:52:05;;;;;;;7.95;3.67;;;9.40;58.30;;;;;;5016402;28;20060;-82
2022/11/16 02:54:31;;;;;;;5.00;2.70;;;9.40;58.20;;;;;;5014434;28;20088;-82
2022/11/16 02:57:03;;;;;;;5.60;2.78;;;9.30;58.10;;;;;;5015837;28;20037;-82
2022/11/16 02:59:43;;;;;;;5.28;3.08;;;9.30;58.10;;;;;;5009506;28;20033;-80
2022/11/16 03:02:22;;;;;;;6.65;2.70;;;9.30;58.10;;;;;;4987260;28;20050;-80
2022/11/16 03:05:12;;;;;;;7.35;2.83;;;9.30;58.10;;;;;;4985599;28;20148;-81
2022/11/16 03:07:54;;;;;;;5.88;3.20;;;9.30;58.10;;;;;;4990346;28;20435;-81
2022/11/16 03:13:10;;;;;;;6.13;3.00;;;9.30;57.90;;;;;;4995565;28;20049;-82
2022/11/16 03:15:39;;;;;;;4.63;2.80;;;9.30;57.90;;;;;;5001456;28;20032;-82
2022/11/16 03:18:08;;;;;;;5.43;2.85;;;9.30;57.80;;;;;;4998695;28;20035;-82
2022/11/16 03:20:37;;;;;;;6.03;2.63;;;9.30;57.70;;;;;;4993070;28;20064;-83
2022/11/16 03:23:10;;;;;;;4.82;2.92;;;9.30;57.80;;;;;;4961617;28;20417;-83
2022/11/16 03:25:48;;;;;;;3.42;2.60;;;9.20;57.70;;;;;;4987379;28;20072;-82
2022/11/16 03:28:19;;;;;;;6.45;2.80;;;9.20;57.60;;;;;;5014341;28;20065;-82
2022/11/16 03:31:01;;;;;;;4.57;2.58;;;9.20;57.60;;;;;;4999618;28;20038;-81
2022/11/16 03:33:35;;;;;;;4.10;3.08;;;9.20;57.60;;;;;;4985951;28;20034;-81
2022/11/16 03:36:17;;;;;;;4.57;3.13;;;9.20;57.50;;;;;;4980629;28;21565;-81
2022/11/16 03:38:45;;;;;;;7.45;3.53;;;9.20;57.60;;;;;;4998828;28;20031;-82
2022/11/16 03:41:13;;;;;;;4.13;2.67;;;9.20;57.40;;;;;;4963501;28;20446;-81
2022/11/16 03:43:43;;;;;;;6.30;3.13;;;9.20;57.50;;;;;;5002212;28;20037;-82
2022/11/16 03:46:09;;;;;;;4.90;2.97;;;9.20;57.60;;;;;;4996167;28;20034;-79
2022/11/16 03:48:38;;;;;;;4.72;2.90;;;9.10;57.60;;;;;;5020044;28;20033;-80
2022/11/16 03:51:11;;;;;;;5.55;2.92;;;9.10;57.60;;;;;;4999254;28;20042;-80
2022/11/16 03:53:39;;;;;;;4.50;2.70;;;9.20;57.70;;;;;;5011956;28;20033;-80
2022/11/16 03:56:05;;;;;;;5.93;2.95;;;9.20;57.60;;;;;;5013952;28;20053;-81
2022/11/16 03:58:31;;;;;;;5.45;2.72;;;9.20;57.60;;;;;;5029857;28;20175;-79
2022/11/16 04:00:57;;;;;;;5.72;3.08;;;9.10;57.50;;;;;;5015083;28;20445;-80
2022/11/16 04:03:25;;;;;;;5.55;2.97;;;9.20;57.50;;;;;;5011622;28;20037;-78
2022/11/16 04:25:29;;;;;;;6.85;4.00;;;9.10;56.80;;;;;;5014853;28;20049;-79
2022/11/16 04:28:15;;;;;;;4.22;2.80;;;9.10;56.70;;;;;;5014866;28;20058;-79
2022/11/16 04:39:06;;;;;;;5.03;3.25;;;9.10;56.60;;;;;;5013843;28;20037;-77
2022/11/16 04:44:17;;;;;;;7.93;3.30;;;9.10;56.60;;;;;;5007270;28;20041;-80
2022/11/16 04:49:29;;;;;;;4.20;3.15;;;9.10;56.90;;;;;;5013334;28;20045;-81
2022/11/16 04:51:56;;;;;;;7.15;3.58;;;9.10;57.40;;;;;;5003796;28;20141;-83
2022/11/16 04:54:22;;;;;;;6.10;4.03;;;9.10;57.90;;;;;;5014707;28;20042;-82
2022/11/16 04:56:48;;;;;;;5.80;3.00;;;9.00;58.20;;;;;;5013994;28;20451;-80
2022/11/16 04:59:14;;;;;;;6.22;3.67;;;9.00;58.80;;;;;;4995915;28;20128;-79
2022/11/16 05:04:25;;;;;;;6.40;3.90;;;9.00;59.50;;;;;;5016877;28;20045;-80
2022/11/16 05:06:51;;;;;;;9.25;4.00;;;9.00;59.30;;;;;;5016578;28;20034;-78
2022/11/16 05:09:17;;;;;;;6.35;3.60;;;9.00;59.40;;;;;;5017418;28;20092;-78
2022/11/16 05:11:42;;;;;;;10.18;3.55;;;9.00;59.50;;;;;;5018453;28;20062;-78
2022/11/16 05:14:09;;;;;;;6.65;3.40;;;9.00;59.50;;;;;;5017152;28;20037;-77
2022/11/16 05:16:36;;;;;;;6.40;4.10;;;9.00;59.70;;;;;;5006075;28;20045;-78
2022/11/16 05:21:47;;;;;;;7.60;3.72;;;8.90;59.90;;;;;;5000733;28;20111;-77
2022/11/16 05:27:02;;;;;;;5.57;3.30;;;8.90;60.10;;;;;;5017115;28;20034;-77
2022/11/16 05:29:28;;;;;;;5.68;3.75;;;8.90;60.00;;;;;;5017915;28;20072;-77
2022/11/16 05:31:54;;;;;;;8.07;4.00;;;9.00;60.00;;;;;;5015963;28;20037;-77
2022/11/16 05:34:22;;;;;;;6.68;3.60;;;9.00;60.00;;;;;;5017644;28;20041;-77
2022/11/16 05:36:48;;;;;;;6.72;3.75;;;8.90;59.70;;;;;;5016915;28;20033;-77
2022/11/16 05:39:14;;;;;;;4.65;2.92;;;9.00;59.70;;;;;;5010430;28;20033;-77
2022/11/16 05:41:42;;;;;;;6.93;3.67;;;9.00;59.50;;;;;;5016371;28;20030;-77
2022/11/16 05:44:08;;;;;;;5.90;3.53;;;8.90;59.20;;;;;;5015742;28;20126;-77
2022/11/16 05:46:34;;;;;;;7.43;3.83;;;9.00;59.10;;;;;;5016289;28;20411;-77
2022/11/16 05:49:01;;;;;;;6.13;3.92;;;9.00;58.90;;;;;;5000452;28;20026;-78
2022/11/16 05:51:27;;;;;;;5.30;3.80;;;9.10;58.70;;;;;;4981920;28;20049;-78
2022/11/16 05:53:54;;;;;;;5.57;3.42;;;9.10;58.60;;;;;;5015907;28;20041;-77
2022/11/16 05:56:22;;;;;;;6.05;3.35;;;9.20;58.50;;;;;;5016979;28;20065;-77
2022/11/16 05:58:48;;;;;;;5.05;3.20;;;9.20;58.30;;;;;;5009647;28;20120;-77
2022/11/16 06:01:14;;;;;;;7.22;3.95;;;9.30;58.10;;;;;;5015895;28;20504;-77
2022/11/16 06:03:41;;;;;;;6.53;3.60;;;9.40;58.00;;;;;;5017080;28;20073;-77
2022/11/16 06:06:07;;;;;;;6.07;3.88;;;9.40;57.70;;;;;;5015297;28;20045;-77
2022/11/16 06:08:35;;;;;;;5.82;3.45;;;9.50;57.50;;;;;;5015857;28;20037;-77
2022/11/16 06:11:06;;;;;;;9.07;4.13;;;9.40;57.40;;;;;;5014779;28;20046;-77
2022/11/16 06:13:34;;;;;;;6.50;3.72;;;9.50;57.30;;;;;;5014667;28;20049;-77
2022/11/16 06:16:01;;;;;;;7.43;4.05;;;9.40;57.00;;;;;;5016582;28;20176;-77
2022/11/16 06:18:30;;;;;;;8.35;4.28;;;9.50;57.10;;;;;;5016061;28;20511;-77
2022/11/16 06:20:56;;;;;;;9.15;4.50;;;9.50;56.80;;;;;;5003485;28;20104;-76
2022/11/16 06:23:22;;;;;;;8.07;4.57;;;9.50;56.60;;;;;;5015149;28;20044;-77
2022/11/16 06:25:54;;;;;;;7.53;4.03;;;9.50;56.50;;;;;;4999099;28;20551;-77
2022/11/16 06:28:21;;;;;;;8.88;4.15;;;9.50;56.40;;;;;;5020784;28;20147;-76
2022/11/16 06:30:47;;;;;;;7.25;4.40;;;9.60;56.30;;;;;;5015605;28;20037;-76
2022/11/16 06:33:13;;;;;;;6.13;3.78;;;9.60;56.10;;;;;;5015145;28;20033;-76
2022/11/16 06:35:40;;;;;;;6.40;3.60;;;9.60;56.00;;;;;;5019521;28;20036;-77
2022/11/16 06:38:07;;;;;;;8.25;4.00;;;9.60;56.00;;;;;;5015125;28;20068;-77
2022/11/16 06:40:33;;;;;;;9.43;3.30;;;9.60;56.00;;;;;;5008774;28;20539;-76
2022/11/16 06:43:01;;;;;;;7.00;3.80;;;9.60;56.00;;;;;;5015713;28;20040;-76
2022/11/16 06:45:27;;;;;;;5.90;3.92;;;9.60;55.90;;;;;;5012830;28;20427;-77
2022/11/16 06:47:55;;;;;;;7.38;3.63;;;9.70;56.10;;;;;;5014858;28;20049;-77
2022/11/16 06:50:23;;;;;;;7.68;3.47;;;9.70;56.00;;;;;;5014264;28;20046;-77
2022/11/16 06:52:49;;;;;;;8.05;4.07;;;9.80;56.10;;;;;;5015175;28;20160;-77
2022/11/16 06:55:16;;;;;;;7.53;3.88;;;9.80;56.10;;;;;;5011582;28;20037;-77
2022/11/16 06:57:42;;;;;;;4.80;3.40;;;9.80;56.00;;;;;;5016089;28;20253;-77
2022/11/16 07:00:10;;;;;;;6.95;3.88;;;9.90;56.00;;;;;;5010748;28;20029;-77
2022/11/16 07:02:38;;;;;;;5.68;4.00;;;9.90;56.00;;;;;;5018810;28;20034;-77
2022/11/16 07:05:06;;;;;;;5.68;3.88;;;10.00;56.00;;;;;;5015297;28;20070;-77
2022/11/16 07:07:32;;;;;;;6.20;3.95;;;10.10;55.90;;;;;;4997785;28;20087;-78
2022/11/16 07:09:58;;;;;;;8.05;4.15;;;10.20;56.00;;;;;;5015289;28;20047;-78
2022/11/16 07:12:26;;;;;;;6.70;3.78;;;10.30;55.90;;;;;;4996729;28;20418;-77
2022/11/16 07:14:54;;;;;;;6.80;4.38;;;10.40;55.80;;;;;;4997739;28;20038;-77
2022/11/16 07:17:22;;;;;;;7.20;4.15;;;10.50;55.50;;;;;;5014024;28;20469;-78
2022/11/16 07:19:49;;;;;;;8.27;4.30;;;10.60;55.50;;;;;;5014895;28;20030;-78
2022/11/16 07:22:15;;;;;;;8.45;4.22;;;10.60;55.40;;;;;;4997809;28;20151;-77
2022/11/16 07:24:41;;;;;;;6.18;4.18;;;10.70;55.20;;;;;;5015514;28;20038;-77
2022/11/16 07:27:08;;;;;;;5.78;4.32;;;10.80;55.10;;;;;;5016014;28;20029;-78
2022/11/16 07:29:38;;;;;;;7.70;5.28;;;10.90;55.00;;;;;;4994783;28;20035;-78
2022/11/16 07:32:19;;;;;;;7.53;5.07;;;10.90;54.70;;;;;;4987657;28;20092;-78
2022/11/16 07:35:02;;;;;;;9.80;5.20;;;11.00;54.50;;;;;;5016080;28;20135;-78
2022/11/16 07:37:29;;;;;;;9.55;5.78;;;11.00;54.30;;;;;;5015069;28;20032;-77
2022/11/16 07:39:55;;;;;;;10.65;5.40;;;11.00;54.30;;;;;;4998952;28;20040;-77
2022/11/16 07:42:22;;;;;;;7.95;5.35;;;11.10;54.30;;;;;;5010000;28;20038;-77
2022/11/16 07:44:59;;;;;;;9.48;5.35;;;11.10;54.10;;;;;;5015016;28;20043;-77
2022/11/16 07:47:24;;;;;;;10.23;5.65;;;11.20;54.20;;;;;;4996865;28;20420;-78
2022/11/16 07:49:51;;;;;;;8.20;5.25;;;11.20;54.10;;;;;;5012602;28;20049;-77
2022/11/16 07:52:19;;;;;;;9.80;5.75;;;11.20;53.90;;;;;;5015509;28;20072;-77
2022/11/16 07:55:00;;;;;;;11.73;5.72;;;11.20;53.90;;;;;;4998293;28;20433;-77
2022/11/16 07:57:29;;;;;;;8.70;5.72;;;11.30;54.20;;;;;;5012793;28;20121;-77
2022/11/16 07:59:59;;;;;;;8.23;5.28;;;11.30;54.20;;;;;;5017809;28;20566;-77
2022/11/16 08:02:26;;;;;;;9.55;5.18;;;11.30;54.00;;;;;;5027274;28;20321;-78
2022/11/16 08:04:53;;;;;;;6.35;4.75;;;11.30;54.10;;;;;;5024219;28;20540;-77
2022/11/16 08:07:23;;;;;;;9.82;5.20;;;11.30;54.20;;;;;;5011148;28;20509;-77
2022/11/16 08:09:54;;;;;;;6.90;4.07;;;11.30;54.20;;;;;;5024134;28;20041;-78
2022/11/16 08:12:21;;;;;;;6.32;4.03;;;11.40;54.00;;;;;;5027860;28;20094;-78
2022/11/16 08:14:47;;;;;;;7.22;4.50;;;11.30;54.10;;;;;;5007583;28;20099;-78
2022/11/16 08:17:13;;;;;;;6.60;4.13;;;11.40;54.20;;;;;;5008600;28;20026;-78
2022/11/16 08:19:41;;;;;;;6.70;3.88;;;11.40;54.00;;;;;;5000609;28;20030;-78
2022/11/16 08:22:08;;;;;;;6.65;4.20;;;11.40;53.80;;;;;;5010600;28;20030;-78
2022/11/16 08:24:34;;;;;;;5.65;3.92;;;11.40;53.70;;;;;;4996516;28;20180;-77
2022/11/16 08:27:00;;;;;;;5.65;4.15;;;11.40;53.70;;;;;;5014486;28;20125;-77
2022/11/16 08:29:26;;;;;;;6.38;4.35;;;11.40;53.70;;;;;;5001630;28;20497;-77
2022/11/16 08:31:53;;;;;;;8.85;4.35;;;11.40;53.70;;;;;;5013261;28;20033;-77
2022/11/16 08:34:21;;;;;;;6.13;4.03;;;11.40;53.70;;;;;;4996981;28;20041;-77
2022/11/16 08:36:50;;;;;;;6.90;4.38;;;11.40;53.70;;;;;;5014735;28;20038;-77
2022/11/16 08:39:19;;;;;;;7.60;4.40;;;11.40;53.50;;;;;;5005032;28;20056;-77
2022/11/16 08:41:45;;;;;;;7.50;4.22;;;11.40;53.30;;;;;;5019137;28;20120;-78
2022/11/16 08:44:15;;;;;;;11.30;7.10;;;11.40;53.40;;;;;;5017044;28;20038;-78
2022/11/16 08:46:44;;;;;;;8.63;5.07;;;11.20;50.70;;;;;;5034205;28;20044;-78
2022/11/16 08:49:35;;;;;;;10.35;5.25;;;10.90;48.90;;;;;;5015755;28;20061;-78
2022/11/16 08:52:01;;;;;;;11.10;5.50;;;10.60;48.70;;;;;;5001907;28;20496;-77
2022/11/16 08:54:29;;;;;;;7.35;5.20;;;10.40;48.70;;;;;;4994802;28;20043;-78
2022/11/16 08:56:56;;;;;;;10.25;5.10;;;10.20;48.60;;;;;;5014611;28;20033;-78
2022/11/16 08:59:22;;;;;;;11.18;5.47;;;10.00;48.40;;;;;;5004310;28;20045;-78
2022/11/16 09:01:50;;;;;;;9.75;4.82;;;9.90;48.30;;;;;;5031873;28;20538;-78
2022/11/16 09:04:17;;;;;;;7.93;4.82;;;9.60;48.30;;;;;;5031213;28;20038;-78
2022/11/16 09:06:44;;;;;;;8.00;4.35;;;9.40;48.30;;;;;;5028593;28;20120;-78
2022/11/16 09:09:10;;;;;;;8.00;4.80;;;9.30;48.80;;;;;;5015808;28;20040;-78
2022/11/16 09:11:36;;;;;;;8.25;5.10;;;9.20;49.20;;;;;;5018269;28;20522;-78
2022/11/16 09:14:02;;;;;;;8.07;4.90;;;9.20;49.10;;;;;;5023701;28;20136;-78
2022/11/16 09:16:28;;;;;;;9.85;5.88;;;9.00;49.30;;;;;;5026217;28;20045;-78
2022/11/16 09:18:55;;;;;;;8.23;5.65;;;8.90;49.30;;;;;;5024328;28;20049;-78
2022/11/16 09:21:28;;;;;;;11.13;5.85;;;8.70;49.50;;;;;;5012779;28;20417;-78
2022/11/16 09:23:55;;;;;;;9.43;5.07;;;8.50;49.60;;;;;;5013998;28;20030;-78
2022/11/16 09:26:22;;;;;;;10.00;5.25;;;8.40;49.70;;;;;;5023592;28;20053;-77
2022/11/16 09:28:59;;;;;;;7.72;5.32;;;8.20;49.90;;;;;;5032575;28;20038;-77
2022/11/16 09:31:27;;;;;;;13.30;6.22;;;8.10;50.00;;;;;;5024792;28;20038;-77
2022/11/16 09:33:54;;;;;;;9.13;4.95;;;8.00;50.10;;;;;;5018546;28;20033;-77
2022/11/16 09:36:20;;;;;;;10.75;5.38;;;7.90;50.10;;;;;;5019311;28;20030;-78
2022/11/16 09:38:46;;;;;;;8.75;4.88;;;7.80;50.30;;;;;;5013403;28;20120;-78
2022/11/16 09:41:15;;;;;;;7.97;5.38;;;7.70;50.40;;;;;;5014476;28;20044;-78
2022/11/16 09:44:11;;;;;;;7.65;5.50;;;7.60;50.60;;;;;;4994060;28;20108;-78
2022/11/16 09:46:40;;;;;;;;;;;7.50;50.80;;;;;;5004728;28;20053;-78
2022/11/16 09:49:16;;;;;;;9.32;5.03;;;7.50;51.10;;;;;;5012881;28;20372;-77
2022/11/16 09:51:46;;;;;;;7.20;4.80;;;7.50;51.30;;;;;;5026865;28;20041;-78
2022/11/16 09:54:16;;;;;;;10.95;4.93;;;7.40;51.30;;;;;;5033434;28;20038;-77
2022/11/16 09:56:45;;;;;;;8.77;5.15;;;7.50;51.40;;;;;;5019406;28;20088;-78
2022/11/16 09:59:31;;;;;;;8.35;5.10;;;7.50;51.50;;;;;;5013179;28;20034;-77
2022/11/16 10:02:21;;;;;;;9.45;4.28;;;7.50;51.60;;;;;;5018070;28;20034;-78
2022/11/16 10:05:06;;;;;;;8.57;5.20;;;7.30;51.20;;;;;;5016944;28;20038;-77
2022/11/16 10:07:47;;;;;;;10.10;4.38;;;7.20;51.30;;;;;;5016843;28;20501;-76
2022/11/16 10:10:15;;;;;;;9.32;4.15;;;7.40;52.80;;;;;;5017826;28;20671;-75
2022/11/16 10:12:59;;;;;;;8.65;4.18;;;7.60;54.40;;;;;;4982463;28;20134;-75
2022/11/16 10:15:48;;;;;;;8.18;4.00;;;7.90;55.10;;;;;;5010451;28;20460;-76
2022/11/16 10:18:45;;;;;;;7.25;3.42;;;8.10;55.30;;;;;;5017097;28;20029;-75
2022/11/16 10:21:38;;;;;;;8.15;3.80;;;8.30;55.90;;;;;;5016666;28;20449;-75
2022/11/16 10:24:19;;;;;;;6.60;3.70;;;8.50;56.30;;;;;;5016231;28;20521;-75
2022/11/16 10:27:18;;;;;;;6.70;3.60;;;8.60;56.90;;;;;;5014651;28;20042;-76
2022/11/16 10:30:02;;;;;;;4.90;3.60;;;8.70;56.90;;;;;;5017862;28;20072;-75
2022/11/16 10:32:35;;;;;;;6.43;3.22;;;8.90;57.20;;;;;;5016092;28;20056;-76
2022/11/16 10:35:27;;;;;;;5.25;3.22;;;8.90;57.30;;;;;;5014087;28;20038;-76
2022/11/16 10:37:54;;;;;;;4.90;3.17;;;9.00;57.30;;;;;;5006995;28;20039;-75
2022/11/16 10:40:28;;;;;;;4.72;3.10;;;9.20;57.40;;;;;;5012857;28;20050;-76
2022/11/16 10:43:03;;;;;;;4.68;3.15;;;9.20;57.20;;;;;;5014917;28;20031;-76
2022/11/16 10:45:35;;;;;;;5.15;3.30;;;9.30;57.20;;;;;;5002922;28;20034;-74
2022/11/16 10:48:36;;;;;;;6.03;3.20;;;9.40;57.10;;;;;;5016975;28;20034;-76
2022/11/16 10:51:03;;;;;;;6.20;3.20;;;9.50;56.80;;;;;;5015067;28;20034;-75
2022/11/16 10:53:41;;;;;;;5.60;3.47;;;9.60;56.80;;;;;;5016616;28;20033;-74
2022/11/16 10:56:22;;;;;;;5.32;2.88;;;9.70;56.70;;;;;;5015764;28;20524;-75
2022/11/16 10:59:05;;;;;;;4.88;3.30;;;9.70;56.70;;;;;;5015882;28;20034;-76
2022/11/16 11:01:36;;;;;;;4.75;3.10;;;9.80;56.70;;;;;;5015365;28;20037;-77
2022/11/16 11:04:11;;;;;;;5.57;2.70;;;9.80;56.40;;;;;;5015567;28;20026;-75
2022/11/16 11:06:38;;;;;;;7.85;3.10;;;9.90;56.20;;;;;;5016959;28;20041;-75
2022/11/16 11:09:28;;;;;;;5.32;3.03;;;9.90;56.10;;;;;;5015020;28;20507;-74
2022/11/16 11:15:12;;;;;;;5.05;2.53;;;10.10;55.90;;;;;;5017622;28;20457;-74
2022/11/16 11:17:37;;;;;;;;;;;10.10;55.70;;;;;;5016141;28;20540;-75
2022/11/16 11:20:16;;;;;;;4.68;2.75;;;10.10;55.70;;;;;;5016715;28;19917;-76
2022/11/16 11:22:45;;;;;;;4.38;2.85;;;10.20;55.80;;;;;;4998475;28;20038;-74
2022/11/16 11:25:32;;;;;;;6.05;3.47;;;10.20;55.60;;;;;;5015475;28;20029;-76
2022/11/16 11:28:15;;;;;;;4.85;2.88;;;10.20;55.50;;;;;;5015627;28;20041;-75
2022/11/16 11:31:10;;;;;;;5.53;2.85;;;10.30;55.40;;;;;;5015406;28;20063;-75
2022/11/16 11:33:47;;;;;;;5.05;2.67;;;10.30;55.20;;;;;;5015623;28;20130;-75
2022/11/16 11:36:25;;;;;;;3.30;3.00;;;10.40;55.20;;;;;;5016473;28;20473;-75
2022/11/16 11:39:24;;;;;;;3.95;2.78;;;10.40;55.20;;;;;;4995267;28;20042;-74
2022/11/16 11:42:03;;;;;;;4.28;3.00;;;10.40;55.00;;;;;;5015279;28;20068;-75
2022/11/16 11:45:01;;;;;;;4.65;3.15;;;10.40;55.00;;;;;;5015778;28;20029;-75
2022/11/16 11:47:55;;;;;;;4.88;2.80;;;10.50;55.00;;;;;;5015332;28;20040;-75
2022/11/16 11:50:29;;;;;;;4.20;2.70;;;10.50;55.10;;;;;;5013707;28;20172;-75
2022/11/16 11:53:06;;;;;;;4.32;3.08;;;10.50;55.00;;;;;;5014937;28;20033;-75
2022/11/16 11:55:33;;;;;;;6.22;2.80;;;10.60;54.90;;;;;;5014619;28;20125;-75
2022/11/16 11:58:01;;;;;;;5.72;2.92;;;10.60;54.80;;;;;;5015595;28;20028;-75
2022/11/16 12:00:41;;;;;;;4.25;2.95;;;10.60;54.80;;;;;;5014027;28;20056;-76
2022/11/16 12:03:39;;;;;;;5.70;2.55;;;10.60;54.90;;;;;;4997009;28;20562;-75
2022/11/16 12:06:37;;;;;;;5.15;2.90;;;10.70;55.10;;;;;;5014991;28;20038;-76
2022/11/16 12:09:09;;;;;;;;;;;10.70;55.30;;;;;;5001642;28;20061;-75
2022/11/16 12:12:08;;;;;;;4.20;2.65;;;10.70;55.40;;;;;;5021816;28;19936;-76
2022/11/16 12:15:06;;;;;;;4.85;2.55;;;10.70;55.40;;;;;;5026467;28;20084;-75
2022/11/16 12:17:52;;;;;;;4.82;2.80;;;10.70;55.60;;;;;;5023308;28;20037;-76
2022/11/16 12:20:36;;;;;;;;;;;10.70;55.70;;;;;;4995281;28;20618;-76
2022/11/16 12:23:21;;;;;;;5.10;2.75;;;10.70;55.70;;;;;;5025256;28;20015;-75
2022/11/16 12:25:47;;;;;;;4.47;2.47;;;10.70;55.80;;;;;;5026447;28;20037;-75
2022/11/16 12:28:44;;;;;;;4.22;2.88;;;10.80;56.00;;;;;;5024276;28;20030;-77
2022/11/16 12:31:26;;;;;;;5.32;3.30;;;10.80;56.10;;;;;;5022612;28;20590;-76
2022/11/16 12:34:08;;;;;;;5.65;2.92;;;10.80;55.80;;;;;;4990574;28;20038;-76
2022/11/16 12:37:07;;;;;;;7.45;3.13;;;10.80;55.70;;;;;;5002400;28;20472;-76
2022/11/16 12:39:37;;;;;;;5.78;3.67;;;10.80;55.40;;;;;;5017618;28;20065;-75
2022/11/16 12:42:31;;;;;;;6.35;3.13;;;10.70;54.40;;;;;;5029406;28;20041;-76
2022/11/16 12:45:16;;;;;;;5.70;3.13;;;10.70;54.10;;;;;;5025474;28;20128;-76
2022/11/16 12:47:56;;;;;;;5.20;3.47;;;10.70;53.80;;;;;;5015609;28;20041;-76
2022/11/16 12:50:46;;;;;;;5.35;3.38;;;10.70;53.40;;;;;;5025425;28;20045;-76
2022/11/16 12:53:30;;;;;;;6.82;3.88;;;10.60;53.20;;;;;;5009249;28;20558;-77
2022/11/16 12:56:33;;;;;;;6.20;3.22;;;10.60;53.10;;;;;;5014924;28;20038;-78
2022/11/16 12:59:24;;;;;;;5.03;3.25;;;10.50;52.90;;;;;;5014501;28;20060;-76
2022/11/16 13:02:36;;;;;;;6.60;3.33;;;10.50;52.90;;;;;;5014116;28;20416;-76
2022/11/16 13:05:23;;;;;;;5.25;3.13;;;10.50;52.90;;;;;;5013717;28;20095;-76
2022/11/16 13:07:51;;;;;;;6.15;3.72;;;10.50;52.90;;;;;;5013919;28;20121;-75
2022/11/16 13:10:23;;;;;;;8.02;4.43;;;10.40;52.80;;;;;;5013916;28;20091;-75
2022/11/16 13:12:56;;;;;;;5.68;3.60;;;10.40;52.80;;;;;;4994829;28;20041;-75
2022/11/16 13:15:33;;;;;;;6.55;3.63;;;10.40;52.80;;;;;;5010740;28;20056;-75
2022/11/16 13:18:03;;;;;;;8.25;4.30;;;10.40;53.00;;;;;;5018836;28;20484;-75
2022/11/16 13:20:38;;;;;;;8.27;4.00;;;10.30;52.90;;;;;;4999126;28;20041;-75
2022/11/16 13:23:17;;;;;;;8.95;4.50;;;10.30;52.90;;;;;;5014195;28;20080;-75
2022/11/16 13:25:58;;;;;;;7.53;4.05;;;10.30;52.90;;;;;;5017579;28;20034;-77
2022/11/16 13:28:44;;;;;;;5.05;3.80;;;10.20;52.90;;;;;;5001997;28;20041;-80
2022/11/16 13:31:18;;;;;;;7.53;3.95;;;10.20;52.90;;;;;;5014220;28;20600;-80
2022/11/16 13:33:51;;;;;;;6.38;3.65;;;10.20;53.00;;;;;;4996797;28;20041;-80
2022/11/16 13:36:42;;;;;;;7.03;3.75;;;10.20;52.90;;;;;;5024635;28;20546;-81
2022/11/16 13:39:10;;;;;;;4.63;3.15;;;10.10;52.80;;;;;;5032587;28;20037;-79
2022/11/16 13:41:41;;;;;;;6.38;3.88;;;10.10;52.80;;;;;;5020755;28;20323;-78
2022/11/16 13:44:19;;;;;;;6.13;3.45;;;10.10;52.90;;;;;;5006417;28;20544;-81
2022/11/16 13:46:56;;;;;;;6.13;3.78;;;10.10;52.90;;;;;;5012350;28;20530;-80
2022/11/16 13:49:53;;;;;;;8.75;4.70;;;10.00;52.90;;;;;;5021251;28;20520;-82
2022/11/16 13:52:19;;;;;;;6.57;4.78;;;10.00;52.90;;;;;;5017510;28;20050;-81
2022/11/16 13:54:49;;;;;;;8.68;5.07;;;10.00;52.80;;;;;;5017135;28;20117;-79
2022/11/16 13:57:31;;;;;;;6.43;4.45;;;9.90;52.70;;;;;;5017047;28;20397;-86
2022/11/16 14:00:00;;;;;;;9.98;5.78;;;9.90;52.80;;;;;;4991395;28;20041;-79
2022/11/16 14:02:32;;;;;;;7.72;5.30;;;10.00;52.90;;;;;;4997695;28;20168;-80
2022/11/16 14:05:12;;;;;;;8.70;5.18;;;9.90;53.10;;;;;;4988353;28;20128;-81
2022/11/16 14:07:45;;;;;;;7.30;4.80;;;9.90;53.30;;;;;;5004834;28;20149;-81
2022/11/16 14:10:30;;;;;;;8.18;4.47;;;9.90;53.70;;;;;;5015498;28;20597;-79